sensor_id;sensor_type;location;lat;lon;timestamp;P1;durP1;ratioP1;P2;durP2;ratioP2
57087;SDS011;42965;52.846;6.614;2023-03-01T00:01:06;28.40;;;24.25;;
57087;SDS011;42965;52.846;6.614;2023-03-01T00:03:34;27.85;;;23.50;;
57087;SDS011;42965;52.846;6.614;2023-03-01T00:06:06;25.13;;;22.43;;
57087;SDS011;42965;52.846;6.614;2023-03-01T00:08:35;28.35;;;23.02;;
57087;SDS011;42965;52.846;6.614;2023-03-01T00:11:13;27.60;;;21.45;;
57087;SDS011;42965;52.846;6.614;2023-03-01T00:13:51;24.35;;;21.67;;
57087;SDS011;42965;52.846;6.614;2023-03-01T00:16:29;29.10;;;23.80;;
57087;SDS011;42965;52.846;6.614;2023-03-01T00:18:58;26.92;;;23.45;;
57087;SDS011;42965;52.846;6.614;2023-03-01T00:21:25;26.90;;;23.90;;
57087;SDS011;42965;52.846;6.614;2023-03-01T00:23:52;27.77;;;23.10;;
57087;SDS011;42965;52.846;6.614;2023-03-01T00:26:20;30.52;;;23.80;;
57087;SDS011;42965;52.846;6.614;2023-03-01T00:28:47;28.38;;;24.00;;
57087;SDS011;42965;52.846;6.614;2023-03-01T00:31:15;30.48;;;25.05;;
57087;SDS011;42965;52.846;6.614;2023-03-01T00:33:43;25.92;;;23.13;;
57087;SDS011;42965;52.846;6.614;2023-03-01T00:36:11;26.33;;;23.40;;
57087;SDS011;42965;52.846;6.614;2023-03-01T00:38:39;29.80;;;23.85;;
57087;SDS011;42965;52.846;6.614;2023-03-01T00:41:09;30.30;;;24.10;;
57087;SDS011;42965;52.846;6.614;2023-03-01T00:43:37;26.52;;;22.60;;
57087;SDS011;42965;52.846;6.614;2023-03-01T00:48:57;28.13;;;23.00;;
57087;SDS011;42965;52.846;6.614;2023-03-01T00:51:27;25.83;;;23.05;;
57087;SDS011;42965;52.846;6.614;2023-03-01T00:53:56;27.90;;;23.35;;
57087;SDS011;42965;52.846;6.614;2023-03-01T00:56:25;27.45;;;22.75;;
57087;SDS011;42965;52.846;6.614;2023-03-01T00:58:51;29.63;;;23.35;;
57087;SDS011;42965;52.846;6.614;2023-03-01T01:01:19;29.63;;;24.17;;
57087;SDS011;42965;52.846;6.614;2023-03-01T01:06:23;32.38;;;25.25;;
57087;SDS011;42965;52.846;6.614;2023-03-01T01:08:52;33.42;;;25.33;;
57087;SDS011;42965;52.846;6.614;2023-03-01T01:11:20;32.38;;;26.77;;
57087;SDS011;42965;52.846;6.614;2023-03-01T01:13:47;34.95;;;26.20;;
57087;SDS011;42965;52.846;6.614;2023-03-01T01:16:14;31.17;;;25.45;;
57087;SDS011;42965;52.846;6.614;2023-03-01T01:18:44;38.33;;;27.27;;
57087;SDS011;42965;52.846;6.614;2023-03-01T01:21:16;35.70;;;25.25;;
57087;SDS011;42965;52.846;6.614;2023-03-01T01:23:45;32.80;;;25.00;;
57087;SDS011;42965;52.846;6.614;2023-03-01T01:26:17;32.05;;;24.63;;
57087;SDS011;42965;52.846;6.614;2023-03-01T01:28:49;31.15;;;23.60;;
57087;SDS011;42965;52.846;6.614;2023-03-01T01:31:16;30.63;;;24.38;;
57087;SDS011;42965;52.846;6.614;2023-03-01T01:33:43;30.15;;;22.95;;
57087;SDS011;42965;52.846;6.614;2023-03-01T01:36:10;29.98;;;22.38;;
57087;SDS011;42965;52.846;6.614;2023-03-01T01:38:37;27.02;;;22.48;;
57087;SDS011;42965;52.846;6.614;2023-03-01T01:41:04;31.05;;;23.88;;
57087;SDS011;42965;52.846;6.614;2023-03-01T01:44:08;28.88;;;22.23;;
57087;SDS011;42965;52.846;6.614;2023-03-01T01:51:40;25.95;;;20.13;;
57087;SDS011;42965;52.846;6.614;2023-03-01T01:54:10;25.77;;;20.80;;
57087;SDS011;42965;52.846;6.614;2023-03-01T01:56:42;25.67;;;19.65;;
57087;SDS011;42965;52.846;6.614;2023-03-01T01:59:13;28.02;;;22.38;;
57087;SDS011;42965;52.846;6.614;2023-03-01T02:01:40;32.03;;;23.08;;
57087;SDS011;42965;52.846;6.614;2023-03-01T02:04:09;28.52;;;22.50;;
57087;SDS011;42965;52.846;6.614;2023-03-01T02:06:41;34.55;;;22.70;;
57087;SDS011;42965;52.846;6.614;2023-03-01T02:09:15;27.05;;;22.15;;
57087;SDS011;42965;52.846;6.614;2023-03-01T02:11:48;32.03;;;23.50;;
57087;SDS011;42965;52.846;6.614;2023-03-01T02:14:16;27.35;;;21.67;;
57087;SDS011;42965;52.846;6.614;2023-03-01T02:16:42;24.85;;;20.95;;
57087;SDS011;42965;52.846;6.614;2023-03-01T02:19:10;27.08;;;21.25;;
57087;SDS011;42965;52.846;6.614;2023-03-01T02:21:49;25.63;;;20.83;;
57087;SDS011;42965;52.846;6.614;2023-03-01T02:27:33;27.35;;;21.15;;
57087;SDS011;42965;52.846;6.614;2023-03-01T02:30:07;27.02;;;22.27;;
57087;SDS011;42965;52.846;6.614;2023-03-01T02:32:36;24.70;;;19.90;;
57087;SDS011;42965;52.846;6.614;2023-03-01T02:35:11;30.10;;;23.00;;
57087;SDS011;42965;52.846;6.614;2023-03-01T02:37:39;26.85;;;20.48;;
57087;SDS011;42965;52.846;6.614;2023-03-01T02:40:09;25.83;;;20.35;;
57087;SDS011;42965;52.846;6.614;2023-03-01T02:43:12;27.58;;;20.67;;
57087;SDS011;42965;52.846;6.614;2023-03-01T02:45:33;26.33;;;21.30;;
57087;SDS011;42965;52.846;6.614;2023-03-01T02:48:00;26.33;;;21.23;;
57087;SDS011;42965;52.846;6.614;2023-03-01T02:55:58;27.53;;;20.23;;
57087;SDS011;42965;52.846;6.614;2023-03-01T02:58:26;27.75;;;22.00;;
57087;SDS011;42965;52.846;6.614;2023-03-01T03:00:52;24.55;;;20.25;;
57087;SDS011;42965;52.846;6.614;2023-03-01T03:03:20;27.20;;;21.20;;
57087;SDS011;42965;52.846;6.614;2023-03-01T03:05:48;25.75;;;21.70;;
57087;SDS011;42965;52.846;6.614;2023-03-01T03:08:15;25.63;;;20.88;;
57087;SDS011;42965;52.846;6.614;2023-03-01T03:10:49;25.67;;;20.55;;
57087;SDS011;42965;52.846;6.614;2023-03-01T03:13:16;24.80;;;20.27;;
57087;SDS011;42965;52.846;6.614;2023-03-01T03:15:44;22.73;;;17.88;;
57087;SDS011;42965;52.846;6.614;2023-03-01T03:18:12;23.77;;;18.95;;
57087;SDS011;42965;52.846;6.614;2023-03-01T03:20:42;23.40;;;18.48;;
57087;SDS011;42965;52.846;6.614;2023-03-01T03:23:09;19.73;;;17.50;;
57087;SDS011;42965;52.846;6.614;2023-03-01T03:25:36;23.23;;;18.75;;
57087;SDS011;42965;52.846;6.614;2023-03-01T03:28:03;25.17;;;21.45;;
57087;SDS011;42965;52.846;6.614;2023-03-01T03:33:04;23.40;;;19.50;;
57087;SDS011;42965;52.846;6.614;2023-03-01T03:35:34;22.42;;;19.92;;
57087;SDS011;42965;52.846;6.614;2023-03-01T03:38:06;22.58;;;19.45;;
57087;SDS011;42965;52.846;6.614;2023-03-01T03:40:45;23.35;;;20.83;;
57087;SDS011;42965;52.846;6.614;2023-03-01T03:43:26;25.13;;;20.60;;
57087;SDS011;42965;52.846;6.614;2023-03-01T03:45:53;25.20;;;21.38;;
57087;SDS011;42965;52.846;6.614;2023-03-01T03:48:22;24.35;;;20.95;;
57087;SDS011;42965;52.846;6.614;2023-03-01T03:50:51;21.67;;;19.27;;
57087;SDS011;42965;52.846;6.614;2023-03-01T03:53:19;23.17;;;19.80;;
57087;SDS011;42965;52.846;6.614;2023-03-01T03:55:46;22.48;;;20.08;;
57087;SDS011;42965;52.846;6.614;2023-03-01T03:58:15;22.52;;;19.15;;
57087;SDS011;42965;52.846;6.614;2023-03-01T04:00:42;24.05;;;20.27;;
57087;SDS011;42965;52.846;6.614;2023-03-01T04:03:11;23.65;;;20.42;;
57087;SDS011;42965;52.846;6.614;2023-03-01T04:05:39;21.83;;;19.45;;
57087;SDS011;42965;52.846;6.614;2023-03-01T04:08:06;21.80;;;18.25;;
57087;SDS011;42965;52.846;6.614;2023-03-01T04:13:03;22.63;;;20.02;;
57087;SDS011;42965;52.846;6.614;2023-03-01T04:15:31;23.70;;;19.77;;
57087;SDS011;42965;52.846;6.614;2023-03-01T04:18:04;23.80;;;20.02;;
57087;SDS011;42965;52.846;6.614;2023-03-01T04:20:32;23.67;;;20.05;;
57087;SDS011;42965;52.846;6.614;2023-03-01T04:23:12;23.60;;;20.88;;
57087;SDS011;42965;52.846;6.614;2023-03-01T04:25:48;23.50;;;20.55;;
57087;SDS011;42965;52.846;6.614;2023-03-01T04:30:54;23.63;;;21.10;;
57087;SDS011;42965;52.846;6.614;2023-03-01T04:33:22;20.85;;;17.80;;
57087;SDS011;42965;52.846;6.614;2023-03-01T04:35:49;23.15;;;20.20;;
57087;SDS011;42965;52.846;6.614;2023-03-01T04:38:17;24.90;;;20.00;;
57087;SDS011;42965;52.846;6.614;2023-03-01T04:40:44;25.48;;;21.88;;
57087;SDS011;42965;52.846;6.614;2023-03-01T04:43:10;23.10;;;20.48;;
57087;SDS011;42965;52.846;6.614;2023-03-01T04:45:40;23.80;;;20.17;;
57087;SDS011;42965;52.846;6.614;2023-03-01T04:48:09;22.35;;;19.27;;
57087;SDS011;42965;52.846;6.614;2023-03-01T04:50:35;20.45;;;17.30;;
57087;SDS011;42965;52.846;6.614;2023-03-01T04:53:04;20.92;;;18.13;;
57087;SDS011;42965;52.846;6.614;2023-03-01T04:55:31;20.90;;;18.65;;
57087;SDS011;42965;52.846;6.614;2023-03-01T04:57:57;22.30;;;18.70;;
57087;SDS011;42965;52.846;6.614;2023-03-01T05:00:26;22.80;;;18.48;;
57087;SDS011;42965;52.846;6.614;2023-03-01T05:02:54;22.95;;;19.77;;
57087;SDS011;42965;52.846;6.614;2023-03-01T05:05:23;23.05;;;19.27;;
57087;SDS011;42965;52.846;6.614;2023-03-01T05:07:53;24.20;;;19.85;;
57087;SDS011;42965;52.846;6.614;2023-03-01T05:10:20;23.23;;;20.38;;
57087;SDS011;42965;52.846;6.614;2023-03-01T05:12:49;21.63;;;19.38;;
57087;SDS011;42965;52.846;6.614;2023-03-01T05:15:15;23.98;;;20.30;;
57087;SDS011;42965;52.846;6.614;2023-03-01T05:17:41;23.75;;;20.95;;
57087;SDS011;42965;52.846;6.614;2023-03-01T05:20:11;27.13;;;22.13;;
57087;SDS011;42965;52.846;6.614;2023-03-01T05:22:38;25.13;;;21.23;;
57087;SDS011;42965;52.846;6.614;2023-03-01T05:25:04;26.17;;;20.90;;
57087;SDS011;42965;52.846;6.614;2023-03-01T05:27:32;22.60;;;20.13;;
57087;SDS011;42965;52.846;6.614;2023-03-01T05:30:00;24.35;;;21.60;;
57087;SDS011;42965;52.846;6.614;2023-03-01T05:32:49;25.25;;;21.35;;
57087;SDS011;42965;52.846;6.614;2023-03-01T05:35:21;25.20;;;20.58;;
57087;SDS011;42965;52.846;6.614;2023-03-01T05:37:48;24.63;;;20.63;;
57087;SDS011;42965;52.846;6.614;2023-03-01T05:40:17;23.70;;;18.85;;
57087;SDS011;42965;52.846;6.614;2023-03-01T05:42:50;24.88;;;20.60;;
57087;SDS011;42965;52.846;6.614;2023-03-01T05:45:23;22.40;;;18.63;;
57087;SDS011;42965;52.846;6.614;2023-03-01T05:47:51;23.83;;;20.58;;
57087;SDS011;42965;52.846;6.614;2023-03-01T05:50:22;25.05;;;20.23;;
57087;SDS011;42965;52.846;6.614;2023-03-01T05:52:59;23.73;;;20.38;;
57087;SDS011;42965;52.846;6.614;2023-03-01T05:55:34;23.77;;;19.95;;
57087;SDS011;42965;52.846;6.614;2023-03-01T05:58:02;24.38;;;21.58;;
57087;SDS011;42965;52.846;6.614;2023-03-01T06:00:30;24.08;;;20.23;;
57087;SDS011;42965;52.846;6.614;2023-03-01T06:02:57;25.23;;;21.13;;
57087;SDS011;42965;52.846;6.614;2023-03-01T06:05:25;20.80;;;18.58;;
57087;SDS011;42965;52.846;6.614;2023-03-01T06:07:51;24.92;;;21.67;;
57087;SDS011;42965;52.846;6.614;2023-03-01T06:10:20;26.45;;;21.30;;
57087;SDS011;42965;52.846;6.614;2023-03-01T06:12:48;24.80;;;20.92;;
57087;SDS011;42965;52.846;6.614;2023-03-01T06:15:15;23.80;;;20.38;;
57087;SDS011;42965;52.846;6.614;2023-03-01T06:17:43;26.67;;;22.02;;
57087;SDS011;42965;52.846;6.614;2023-03-01T06:20:11;29.13;;;21.40;;
57087;SDS011;42965;52.846;6.614;2023-03-01T06:22:49;26.73;;;21.70;;
57087;SDS011;42965;52.846;6.614;2023-03-01T06:25:19;26.92;;;22.35;;
57087;SDS011;42965;52.846;6.614;2023-03-01T06:27:47;26.60;;;20.75;;
57087;SDS011;42965;52.846;6.614;2023-03-01T06:30:15;25.13;;;20.95;;
57087;SDS011;42965;52.846;6.614;2023-03-01T06:32:43;23.67;;;19.75;;
57087;SDS011;42965;52.846;6.614;2023-03-01T06:35:10;27.25;;;21.15;;
57087;SDS011;42965;52.846;6.614;2023-03-01T06:37:38;27.30;;;22.02;;
57087;SDS011;42965;52.846;6.614;2023-03-01T06:40:05;28.42;;;22.00;;
57087;SDS011;42965;52.846;6.614;2023-03-01T06:42:36;27.77;;;22.13;;
57087;SDS011;42965;52.846;6.614;2023-03-01T06:45:06;28.48;;;21.92;;
57087;SDS011;42965;52.846;6.614;2023-03-01T06:47:34;27.95;;;21.15;;
57087;SDS011;42965;52.846;6.614;2023-03-01T06:50:01;28.02;;;22.02;;
57087;SDS011;42965;52.846;6.614;2023-03-01T06:52:31;30.98;;;24.10;;
57087;SDS011;42965;52.846;6.614;2023-03-01T06:54:57;28.65;;;22.38;;
57087;SDS011;42965;52.846;6.614;2023-03-01T06:57:27;27.60;;;21.67;;
57087;SDS011;42965;52.846;6.614;2023-03-01T06:59:53;28.77;;;22.27;;
57087;SDS011;42965;52.846;6.614;2023-03-01T07:02:20;27.90;;;23.15;;
57087;SDS011;42965;52.846;6.614;2023-03-01T07:04:48;28.17;;;23.50;;
57087;SDS011;42965;52.846;6.614;2023-03-01T07:07:16;28.80;;;23.92;;
57087;SDS011;42965;52.846;6.614;2023-03-01T07:09:44;30.48;;;22.48;;
57087;SDS011;42965;52.846;6.614;2023-03-01T07:12:11;28.77;;;24.13;;
57087;SDS011;42965;52.846;6.614;2023-03-01T07:14:38;31.48;;;23.77;;
57087;SDS011;42965;52.846;6.614;2023-03-01T07:17:09;32.75;;;25.15;;
57087;SDS011;42965;52.846;6.614;2023-03-01T07:19:36;30.65;;;23.73;;
57087;SDS011;42965;52.846;6.614;2023-03-01T07:22:03;29.77;;;23.65;;
57087;SDS011;42965;52.846;6.614;2023-03-01T07:24:34;30.30;;;22.67;;
57087;SDS011;42965;52.846;6.614;2023-03-01T07:27:00;29.17;;;22.08;;
57087;SDS011;42965;52.846;6.614;2023-03-01T07:29:29;28.85;;;22.85;;
57087;SDS011;42965;52.846;6.614;2023-03-01T07:31:55;31.92;;;23.23;;
57087;SDS011;42965;52.846;6.614;2023-03-01T07:34:22;26.95;;;22.13;;
57087;SDS011;42965;52.846;6.614;2023-03-01T07:36:51;29.55;;;23.65;;
57087;SDS011;42965;52.846;6.614;2023-03-01T07:39:17;29.52;;;22.83;;
57087;SDS011;42965;52.846;6.614;2023-03-01T07:41:44;27.88;;;23.42;;
57087;SDS011;42965;52.846;6.614;2023-03-01T07:44:10;27.40;;;22.25;;
57087;SDS011;42965;52.846;6.614;2023-03-01T07:46:38;28.05;;;22.55;;
57087;SDS011;42965;52.846;6.614;2023-03-01T07:49:05;25.35;;;22.05;;
57087;SDS011;42965;52.846;6.614;2023-03-01T07:51:31;27.70;;;21.83;;
57087;SDS011;42965;52.846;6.614;2023-03-01T07:53:58;26.08;;;21.30;;
57087;SDS011;42965;52.846;6.614;2023-03-01T07:56:24;26.80;;;21.85;;
57087;SDS011;42965;52.846;6.614;2023-03-01T07:58:50;26.88;;;22.60;;
57087;SDS011;42965;52.846;6.614;2023-03-01T08:01:18;28.00;;;23.05;;
57087;SDS011;42965;52.846;6.614;2023-03-01T08:03:46;25.55;;;22.38;;
57087;SDS011;42965;52.846;6.614;2023-03-01T08:06:15;24.25;;;21.65;;
57087;SDS011;42965;52.846;6.614;2023-03-01T08:08:42;28.27;;;23.58;;
57087;SDS011;42965;52.846;6.614;2023-03-01T08:11:10;25.23;;;22.52;;
57087;SDS011;42965;52.846;6.614;2023-03-01T08:13:49;25.50;;;22.15;;
57087;SDS011;42965;52.846;6.614;2023-03-01T08:16:18;27.55;;;24.60;;
57087;SDS011;42965;52.846;6.614;2023-03-01T08:18:44;28.13;;;24.13;;
57087;SDS011;42965;52.846;6.614;2023-03-01T08:21:15;29.92;;;25.73;;
57087;SDS011;42965;52.846;6.614;2023-03-01T08:23:43;28.98;;;25.92;;
57087;SDS011;42965;52.846;6.614;2023-03-01T08:26:11;27.33;;;24.40;;
57087;SDS011;42965;52.846;6.614;2023-03-01T08:28:39;27.73;;;24.15;;
57087;SDS011;42965;52.846;6.614;2023-03-01T08:31:40;27.83;;;24.85;;
57087;SDS011;42965;52.846;6.614;2023-03-01T08:34:04;27.38;;;23.15;;
57087;SDS011;42965;52.846;6.614;2023-03-01T08:36:40;25.63;;;22.85;;
57087;SDS011;42965;52.846;6.614;2023-03-01T08:39:08;24.48;;;22.08;;
57087;SDS011;42965;52.846;6.614;2023-03-01T08:41:36;27.65;;;24.48;;
57087;SDS011;42965;52.846;6.614;2023-03-01T08:44:05;26.25;;;23.63;;
57087;SDS011;42965;52.846;6.614;2023-03-01T08:46:33;25.75;;;23.15;;
57087;SDS011;42965;52.846;6.614;2023-03-01T08:49:04;28.42;;;25.33;;
57087;SDS011;42965;52.846;6.614;2023-03-01T08:51:35;25.65;;;22.90;;
57087;SDS011;42965;52.846;6.614;2023-03-01T08:54:17;25.60;;;22.93;;
57087;SDS011;42965;52.846;6.614;2023-03-01T08:56:45;25.63;;;22.95;;
57087;SDS011;42965;52.846;6.614;2023-03-01T08:59:12;24.52;;;21.80;;
57087;SDS011;42965;52.846;6.614;2023-03-01T09:01:49;25.30;;;22.80;;
57087;SDS011;42965;52.846;6.614;2023-03-01T09:04:15;25.88;;;22.83;;
57087;SDS011;42965;52.846;6.614;2023-03-01T09:06:42;23.83;;;21.30;;
57087;SDS011;42965;52.846;6.614;2023-03-01T09:09:15;21.17;;;19.02;;
57087;SDS011;42965;52.846;6.614;2023-03-01T09:11:43;22.98;;;20.67;;
57087;SDS011;42965;52.846;6.614;2023-03-01T09:14:12;22.63;;;20.35;;
57087;SDS011;42965;52.846;6.614;2023-03-01T09:16:40;22.08;;;19.75;;
57087;SDS011;42965;52.846;6.614;2023-03-01T09:19:12;23.88;;;21.38;;
57087;SDS011;42965;52.846;6.614;2023-03-01T09:21:39;26.13;;;22.73;;
57087;SDS011;42965;52.846;6.614;2023-03-01T09:24:06;25.17;;;21.67;;
57087;SDS011;42965;52.846;6.614;2023-03-01T09:26:37;23.08;;;20.67;;
57087;SDS011;42965;52.846;6.614;2023-03-01T09:29:04;23.02;;;18.63;;
57087;SDS011;42965;52.846;6.614;2023-03-01T09:31:30;20.52;;;16.60;;
57087;SDS011;42965;52.846;6.614;2023-03-01T09:33:57;19.10;;;16.52;;
57087;SDS011;42965;52.846;6.614;2023-03-01T09:36:24;20.92;;;18.55;;
57087;SDS011;42965;52.846;6.614;2023-03-01T09:38:53;22.17;;;19.95;;
57087;SDS011;42965;52.846;6.614;2023-03-01T09:46:59;14.80;;;12.95;;
57087;SDS011;42965;52.846;6.614;2023-03-01T09:49:34;15.88;;;12.70;;
57087;SDS011;42965;52.846;6.614;2023-03-01T09:52:11;13.55;;;11.95;;
57087;SDS011;42965;52.846;6.614;2023-03-01T09:54:46;13.05;;;10.20;;
57087;SDS011;42965;52.846;6.614;2023-03-01T09:57:18;13.32;;;11.68;;
57087;SDS011;42965;52.846;6.614;2023-03-01T10:00:03;12.75;;;11.23;;
57087;SDS011;42965;52.846;6.614;2023-03-01T10:10:47;10.13;;;6.35;;
57087;SDS011;42965;52.846;6.614;2023-03-01T10:15:55;9.50;;;6.55;;
57087;SDS011;42965;52.846;6.614;2023-03-01T10:18:28;9.23;;;8.27;;
57087;SDS011;42965;52.846;6.614;2023-03-01T10:21:02;9.85;;;7.65;;
57087;SDS011;42965;52.846;6.614;2023-03-01T10:23:38;8.68;;;7.63;;
57087;SDS011;42965;52.846;6.614;2023-03-01T10:31:12;9.30;;;8.15;;
57087;SDS011;42965;52.846;6.614;2023-03-01T10:33:42;10.23;;;7.38;;
57087;SDS011;42965;52.846;6.614;2023-03-01T10:36:09;9.23;;;6.90;;
57087;SDS011;42965;52.846;6.614;2023-03-01T10:38:49;9.52;;;7.20;;
57087;SDS011;42965;52.846;6.614;2023-03-01T10:41:21;14.32;;;9.50;;
57087;SDS011;42965;52.846;6.614;2023-03-01T10:43:53;9.88;;;7.15;;
57087;SDS011;42965;52.846;6.614;2023-03-01T10:51:41;10.20;;;7.60;;
57087;SDS011;42965;52.846;6.614;2023-03-01T10:57:03;8.00;;;5.95;;
57087;SDS011;42965;52.846;6.614;2023-03-01T10:59:40;5.82;;;5.10;;
57087;SDS011;42965;52.846;6.614;2023-03-01T11:05:03;7.97;;;5.70;;
57087;SDS011;42965;52.846;6.614;2023-03-01T11:13:56;7.35;;;4.28;;
57087;SDS011;42965;52.846;6.614;2023-03-01T11:19:20;7.22;;;5.95;;
57087;SDS011;42965;52.846;6.614;2023-03-01T11:21:53;6.60;;;5.47;;
57087;SDS011;42965;52.846;6.614;2023-03-01T11:24:53;8.77;;;6.65;;
57087;SDS011;42965;52.846;6.614;2023-03-01T11:27:34;10.60;;;7.32;;
57087;SDS011;42965;52.846;6.614;2023-03-01T11:30:07;9.63;;;7.88;;
57087;SDS011;42965;52.846;6.614;2023-03-01T11:32:58;8.25;;;5.97;;
57087;SDS011;42965;52.846;6.614;2023-03-01T11:35:28;6.60;;;4.88;;
57087;SDS011;42965;52.846;6.614;2023-03-01T11:40:33;9.30;;;7.82;;
57087;SDS011;42965;52.846;6.614;2023-03-01T11:43:09;7.60;;;6.43;;
57087;SDS011;42965;52.846;6.614;2023-03-01T11:46:02;6.38;;;5.03;;
57087;SDS011;42965;52.846;6.614;2023-03-01T11:51:25;8.25;;;6.57;;
57087;SDS011;42965;52.846;6.614;2023-03-01T11:56:55;10.30;;;9.20;;
57087;SDS011;42965;52.846;6.614;2023-03-01T11:59:51;13.00;;;10.70;;
57087;SDS011;42965;52.846;6.614;2023-03-01T12:05:20;9.73;;;8.55;;
57087;SDS011;42965;52.846;6.614;2023-03-01T12:08:20;13.55;;;11.82;;
57087;SDS011;42965;52.846;6.614;2023-03-01T12:14:08;9.73;;;8.75;;
57087;SDS011;42965;52.846;6.614;2023-03-01T12:17:01;11.43;;;9.63;;
57087;SDS011;42965;52.846;6.614;2023-03-01T12:19:33;11.73;;;10.23;;
57087;SDS011;42965;52.846;6.614;2023-03-01T12:40:01;12.90;;;9.23;;
57087;SDS011;42965;52.846;6.614;2023-03-01T12:51:26;10.32;;;8.07;;
57087;SDS011;42965;52.846;6.614;2023-03-01T12:53:53;10.05;;;7.95;;
57087;SDS011;42965;52.846;6.614;2023-03-01T12:56:24;7.80;;;7.00;;
57087;SDS011;42965;52.846;6.614;2023-03-01T13:01:54;10.25;;;8.30;;
57087;SDS011;42965;52.846;6.614;2023-03-01T13:07:25;10.18;;;8.65;;
57087;SDS011;42965;52.846;6.614;2023-03-01T13:10:16;8.95;;;7.40;;
57087;SDS011;42965;52.846;6.614;2023-03-01T13:15:31;10.85;;;9.18;;
57087;SDS011;42965;52.846;6.614;2023-03-01T13:18:00;14.05;;;12.57;;
57087;SDS011;42965;52.846;6.614;2023-03-01T13:30:58;9.38;;;7.82;;
57087;SDS011;42965;52.846;6.614;2023-03-01T13:41:16;10.52;;;9.48;;
57087;SDS011;42965;52.846;6.614;2023-03-01T13:44:02;10.00;;;8.98;;
57087;SDS011;42965;52.846;6.614;2023-03-01T13:46:38;10.90;;;9.40;;
57087;SDS011;42965;52.846;6.614;2023-03-01T13:49:09;12.60;;;10.50;;
57087;SDS011;42965;52.846;6.614;2023-03-01T13:51:40;9.57;;;8.57;;
57087;SDS011;42965;52.846;6.614;2023-03-01T13:54:09;11.60;;;8.77;;
57087;SDS011;42965;52.846;6.614;2023-03-01T13:56:37;10.68;;;8.32;;
57087;SDS011;42965;52.846;6.614;2023-03-01T13:59:14;12.45;;;8.63;;
57087;SDS011;42965;52.846;6.614;2023-03-01T14:01:41;10.90;;;9.80;;
57087;SDS011;42965;52.846;6.614;2023-03-01T14:04:30;11.23;;;9.00;;
57087;SDS011;42965;52.846;6.614;2023-03-01T14:09:42;13.30;;;11.95;;
57087;SDS011;42965;52.846;6.614;2023-03-01T14:20:45;13.32;;;11.88;;
57087;SDS011;42965;52.846;6.614;2023-03-01T14:23:19;12.10;;;10.90;;
57087;SDS011;42965;52.846;6.614;2023-03-01T14:25:52;12.45;;;11.15;;
57087;SDS011;42965;52.846;6.614;2023-03-01T14:28:21;15.07;;;13.05;;
57087;SDS011;42965;52.846;6.614;2023-03-01T14:30:55;12.90;;;10.82;;
57087;SDS011;42965;52.846;6.614;2023-03-01T14:33:24;11.23;;;10.02;;
57087;SDS011;42965;52.846;6.614;2023-03-01T14:35:54;13.60;;;9.07;;
57087;SDS011;42965;52.846;6.614;2023-03-01T14:38:30;10.55;;;9.45;;
57087;SDS011;42965;52.846;6.614;2023-03-01T14:41:25;12.38;;;10.13;;
57087;SDS011;42965;52.846;6.614;2023-03-01T14:44:16;12.45;;;10.05;;
57087;SDS011;42965;52.846;6.614;2023-03-01T14:46:54;11.30;;;9.55;;
57087;SDS011;42965;52.846;6.614;2023-03-01T14:49:26;13.65;;;11.18;;
57087;SDS011;42965;52.846;6.614;2023-03-01T14:52:03;11.38;;;10.18;;
57087;SDS011;42965;52.846;6.614;2023-03-01T14:54:40;11.20;;;10.10;;
57087;SDS011;42965;52.846;6.614;2023-03-01T14:57:24;12.50;;;10.02;;
57087;SDS011;42965;52.846;6.614;2023-03-01T14:59:53;13.32;;;11.18;;
57087;SDS011;42965;52.846;6.614;2023-03-01T15:02:24;12.05;;;10.77;;
57087;SDS011;42965;52.846;6.614;2023-03-01T15:04:54;11.60;;;9.90;;
57087;SDS011;42965;52.846;6.614;2023-03-01T15:07:24;12.60;;;11.07;;
57087;SDS011;42965;52.846;6.614;2023-03-01T15:09:55;12.85;;;10.88;;
57087;SDS011;42965;52.846;6.614;2023-03-01T15:14:55;12.30;;;9.68;;
57087;SDS011;42965;52.846;6.614;2023-03-01T15:20:00;10.32;;;8.88;;
57087;SDS011;42965;52.846;6.614;2023-03-01T15:22:34;10.35;;;9.15;;
57087;SDS011;42965;52.846;6.614;2023-03-01T15:25:21;11.95;;;9.10;;
57087;SDS011;42965;52.846;6.614;2023-03-01T15:27:53;12.95;;;10.48;;
57087;SDS011;42965;52.846;6.614;2023-03-01T15:30:26;11.35;;;9.25;;
57087;SDS011;42965;52.846;6.614;2023-03-01T15:33:16;11.57;;;10.25;;
57087;SDS011;42965;52.846;6.614;2023-03-01T15:35:46;12.13;;;10.32;;
57087;SDS011;42965;52.846;6.614;2023-03-01T15:41:54;10.82;;;8.82;;
57087;SDS011;42965;52.846;6.614;2023-03-01T15:44:28;10.65;;;9.43;;
57087;SDS011;42965;52.846;6.614;2023-03-01T15:46:56;13.95;;;12.55;;
57087;SDS011;42965;52.846;6.614;2023-03-01T15:49:32;10.73;;;9.68;;
57087;SDS011;42965;52.846;6.614;2023-03-01T15:52:03;11.27;;;9.40;;
57087;SDS011;42965;52.846;6.614;2023-03-01T15:54:30;12.27;;;10.75;;
57087;SDS011;42965;52.846;6.614;2023-03-01T15:57:00;13.35;;;10.85;;
57087;SDS011;42965;52.846;6.614;2023-03-01T15:59:26;12.25;;;10.10;;
57087;SDS011;42965;52.846;6.614;2023-03-01T16:01:56;12.68;;;11.25;;
57087;SDS011;42965;52.846;6.614;2023-03-01T16:04:31;11.32;;;10.13;;
57087;SDS011;42965;52.846;6.614;2023-03-01T16:06:58;13.35;;;11.48;;
57087;SDS011;42965;52.846;6.614;2023-03-01T16:09:24;14.30;;;11.90;;
57087;SDS011;42965;52.846;6.614;2023-03-01T16:11:58;14.55;;;12.10;;
57087;SDS011;42965;52.846;6.614;2023-03-01T16:14:24;13.32;;;11.80;;
57087;SDS011;42965;52.846;6.614;2023-03-01T16:16:51;13.77;;;11.07;;
57087;SDS011;42965;52.846;6.614;2023-03-01T16:19:18;13.02;;;11.52;;
57087;SDS011;42965;52.846;6.614;2023-03-01T16:21:45;13.93;;;11.93;;
57087;SDS011;42965;52.846;6.614;2023-03-01T16:24:13;15.60;;;12.23;;
57087;SDS011;42965;52.846;6.614;2023-03-01T16:26:40;16.50;;;14.75;;
57087;SDS011;42965;52.846;6.614;2023-03-01T16:29:07;16.88;;;14.60;;
57087;SDS011;42965;52.846;6.614;2023-03-01T16:31:33;17.52;;;14.45;;
57087;SDS011;42965;52.846;6.614;2023-03-01T16:34:00;14.82;;;12.75;;
57087;SDS011;42965;52.846;6.614;2023-03-01T16:36:26;15.30;;;12.57;;
57087;SDS011;42965;52.846;6.614;2023-03-01T16:38:58;16.60;;;14.65;;
57087;SDS011;42965;52.846;6.614;2023-03-01T16:41:26;17.17;;;14.48;;
57087;SDS011;42965;52.846;6.614;2023-03-01T16:43:53;17.17;;;13.48;;
57087;SDS011;42965;52.846;6.614;2023-03-01T16:46:27;18.17;;;14.75;;
57087;SDS011;42965;52.846;6.614;2023-03-01T16:48:54;18.38;;;13.57;;
57087;SDS011;42965;52.846;6.614;2023-03-01T16:51:21;18.05;;;13.48;;
57087;SDS011;42965;52.846;6.614;2023-03-01T16:53:50;15.73;;;13.30;;
57087;SDS011;42965;52.846;6.614;2023-03-01T16:56:19;16.45;;;13.88;;
57087;SDS011;42965;52.846;6.614;2023-03-01T16:58:45;15.88;;;14.18;;
57087;SDS011;42965;52.846;6.614;2023-03-01T17:01:13;17.67;;;13.95;;
57087;SDS011;42965;52.846;6.614;2023-03-01T17:03:41;15.45;;;13.75;;
57087;SDS011;42965;52.846;6.614;2023-03-01T17:06:10;15.25;;;13.43;;
57087;SDS011;42965;52.846;6.614;2023-03-01T17:08:39;17.20;;;14.30;;
57087;SDS011;42965;52.846;6.614;2023-03-01T17:11:16;16.25;;;13.38;;
57087;SDS011;42965;52.846;6.614;2023-03-01T17:13:47;17.38;;;14.15;;
57087;SDS011;42965;52.846;6.614;2023-03-01T17:16:15;15.60;;;13.43;;
57087;SDS011;42965;52.846;6.614;2023-03-01T17:18:45;17.17;;;14.70;;
57087;SDS011;42965;52.846;6.614;2023-03-01T17:21:11;18.85;;;16.35;;
57087;SDS011;42965;52.846;6.614;2023-03-01T17:23:39;16.75;;;14.73;;